createdAt,value
2019-05-16T00:03:20.666Z,2.73
2019-05-16T00:11:38.545Z,2.80
2019-05-16T00:19:56.149Z,3.83
2019-05-16T00:28:13.559Z,3.27
2019-05-16T00:36:31.039Z,3.70
2019-05-16T00:44:48.472Z,3.70
2019-05-16T00:53:05.935Z,3.80
2019-05-16T01:01:23.406Z,3.60
2019-05-16T01:09:40.868Z,3.10
2019-05-16T01:17:58.874Z,4.47
2019-05-16T01:26:18.382Z,3.73
2019-05-16T01:34:37.675Z,3.47
2019-05-16T01:42:54.920Z,4.00
2019-05-16T01:51:12.445Z,3.23
2019-05-16T01:59:30.241Z,3.90
2019-05-16T02:07:48.117Z,4.23
2019-05-16T02:16:08.169Z,4.00
2019-05-16T02:24:28.357Z,4.22
2019-05-16T02:32:44.445Z,4.30
2019-05-16T02:41:03.076Z,4.67
2019-05-16T02:49:21.661Z,4.43
2019-05-16T02:57:41.480Z,4.20
2019-05-16T03:06:01.432Z,6.57
2019-05-16T03:14:21.187Z,4.53
2019-05-16T03:22:41.090Z,5.28
2019-05-16T03:31:04.353Z,4.77
2019-05-16T03:39:21.031Z,4.40
2019-05-16T03:47:37.592Z,4.90
2019-05-16T03:55:55.138Z,4.57
2019-05-16T04:04:12.666Z,4.80
2019-05-16T04:12:30.971Z,4.67
2019-05-16T04:20:51.853Z,4.73
2019-05-16T04:29:11.504Z,5.22
2019-05-16T04:37:27.320Z,4.33
2019-05-16T04:45:44.862Z,4.20
2019-05-16T04:54:06.776Z,4.30
2019-05-16T05:02:21.756Z,4.30
2019-05-16T05:10:40.627Z,3.90
2019-05-16T05:19:00.321Z,4.10
2019-05-16T05:27:19.654Z,3.90
2019-05-16T05:35:36.933Z,4.53
2019-05-16T05:43:54.589Z,4.67
2019-05-16T05:52:12.740Z,6.13
2019-05-16T06:00:30.585Z,5.17
2019-05-16T06:08:50.041Z,6.17
2019-05-16T06:17:07.189Z,4.30
2019-05-16T06:25:24.627Z,3.80
2019-05-16T06:33:42.063Z,4.53
2019-05-16T06:42:00.549Z,3.40
2019-05-16T06:50:20.631Z,3.60
2019-05-16T06:58:45.604Z,3.77
2019-05-16T07:07:02.019Z,3.40
2019-05-16T07:15:16.161Z,4.23
2019-05-16T07:23:33.595Z,3.20
2019-05-16T07:31:52.401Z,3.50
2019-05-16T07:40:19.131Z,6.80
2019-05-16T07:48:31.540Z,10.90
2019-05-16T07:56:57.123Z,7.90
2019-05-16T08:05:10.319Z,6.47
2019-05-16T08:13:27.842Z,6.10
2019-05-16T08:22:11.449Z,6.87
2019-05-16T08:30:31.710Z,6.70
2019-05-16T08:38:51.205Z,6.50
2019-05-16T08:47:07.549Z,7.77
2019-05-16T08:55:25.003Z,7.97
2019-05-16T09:03:42.770Z,8.10
2019-05-16T09:12:00.223Z,5.20
2019-05-16T09:20:17.904Z,5.20
2019-05-16T09:28:38.836Z,5.83
2019-05-16T09:37:00.469Z,4.93
2019-05-16T09:45:13.823Z,5.20
2019-05-16T09:53:31.362Z,5.63
2019-05-16T10:01:48.898Z,5.50
2019-05-16T10:10:06.961Z,5.80
2019-05-16T10:18:24.576Z,4.50
2019-05-16T10:26:42.089Z,4.60
2019-05-16T10:34:59.639Z,4.47
2019-05-16T10:43:17.406Z,3.90
2019-05-16T10:51:37.577Z,4.00
2019-05-16T11:00:06.647Z,5.10
2019-05-16T11:08:13.303Z,5.07
2019-05-16T11:16:30.845Z,4.73
2019-05-16T11:24:48.304Z,6.00
2019-05-16T11:33:07.614Z,4.33
2019-05-16T11:41:27.329Z,5.17
2019-05-16T11:49:44.211Z,5.37
2019-05-16T11:58:01.681Z,4.50
2019-05-16T12:06:19.185Z,5.30
2019-05-16T12:14:36.766Z,5.17
2019-05-16T12:22:54.983Z,5.60
2019-05-16T12:31:12.461Z,5.03
2019-05-16T12:39:32.763Z,4.70
2019-05-16T12:47:50.342Z,7.07
2019-05-16T12:56:07.879Z,8.50
2019-05-16T13:04:27.998Z,7.13
2019-05-16T13:12:44.611Z,8.50
2019-05-16T13:21:02.073Z,9.98
2019-05-16T13:29:20.125Z,8.60
2019-05-16T13:37:37.581Z,12.93
2019-05-16T13:45:57.351Z,12.30
2019-05-16T13:54:14.224Z,11.23
2019-05-16T14:02:31.772Z,12.80
2019-05-16T14:10:49.434Z,15.10
2019-05-16T14:19:07.654Z,14.47
2019-05-16T14:27:26.830Z,15.63
2019-05-16T14:35:47.018Z,19.95
2019-05-16T14:44:03.753Z,30.60
2019-05-16T14:52:21.209Z,21.03
2019-05-16T15:00:38.691Z,24.40
2019-05-16T15:08:56.737Z,23.60
2019-05-16T15:17:16.771Z,23.83
2019-05-16T15:25:33.588Z,24.77
2019-05-16T15:33:51.067Z,26.33
2019-05-16T15:42:08.500Z,27.10
2019-05-16T15:50:28.119Z,19.77
2019-05-16T15:58:46.653Z,16.77
2019-05-16T16:07:11.194Z,17.17
2019-05-16T16:15:32.891Z,15.40
2019-05-16T16:23:54.544Z,18.80
2019-05-16T16:32:55.422Z,16.10
2019-05-16T16:50:28.608Z,15.57
2019-05-16T16:59:07.779Z,18.50
2019-05-16T17:07:40.208Z,17.83
2019-05-16T17:16:23.112Z,17.73
2019-05-16T17:42:23.904Z,19.40
2019-05-16T17:50:38.937Z,18.50
2019-05-16T17:58:56.938Z,16.60
2019-05-16T18:07:14.657Z,18.20
2019-05-16T18:15:32.081Z,20.20
2019-05-16T18:23:49.608Z,17.07
2019-05-16T18:32:07.177Z,17.00
2019-05-16T18:40:27.014Z,17.37
2019-05-16T18:48:44.174Z,17.97
2019-05-16T18:57:01.595Z,19.40
2019-05-16T19:05:19.063Z,18.90
2019-05-16T19:13:36.939Z,24.00
2019-05-16T19:21:56.646Z,20.57
2019-05-16T19:30:14.884Z,19.43
2019-05-16T19:38:32.736Z,21.00
2019-05-16T19:46:50.213Z,20.90
2019-05-16T19:55:08.050Z,33.20
2019-05-16T20:03:27.325Z,22.47
2019-05-16T20:11:46.357Z,19.17
2019-05-16T20:20:04.179Z,19.17
2019-05-16T20:28:21.634Z,20.27
2019-05-16T20:36:39.098Z,34.97
2019-05-16T20:44:57.543Z,56.87
2019-05-16T20:53:17.410Z,31.40
2019-05-16T21:01:34.424Z,18.70
2019-05-16T21:09:52.125Z,19.57
2019-05-16T21:18:09.956Z,22.00
2019-05-16T21:26:27.446Z,23.40
2019-05-16T21:34:46.875Z,25.80
2019-05-16T21:43:04.355Z,26.07
2019-05-16T21:51:21.775Z,30.37
2019-05-16T21:59:39.301Z,26.50
2019-05-16T22:07:56.921Z,23.80
2019-05-16T22:16:17.357Z,24.40
2019-05-16T22:24:33.783Z,26.70
2019-05-16T22:32:51.328Z,30.37
2019-05-16T22:41:10.749Z,28.70
2019-05-16T22:49:27.976Z,30.50
2019-05-16T22:57:47.387Z,28.27
2019-05-16T23:06:07.390Z,29.85
2019-05-16T23:14:26.263Z,27.23
2019-05-16T23:22:43.220Z,30.13
2019-05-16T23:31:00.688Z,38.30
2019-05-16T23:39:18.126Z,39.50
2019-05-16T23:47:36.574Z,31.17
2019-05-16T23:55:56.593Z,36.67
